Time;durP1;ratioP1;P1;durP2;ratioP2;P2;SDS_P1;SDS_P2;PMS_P1;PMS_P2;Temp;Humidity;BMP_temperature;BMP_pressure;BME280_temperature;BME280_humidity;BME280_pressure;Samples;Min_cycle;Max_cycle;Signal;HPM_P1;HPM_P2
2021/12/15 00:01:28;;;;;;;21.70;12.45;;;;;;;7.82;100.00;97577.13;4983209;28;20073;-48
2021/12/15 00:03:57;;;;;;;20.90;13.10;;;;;;;8.07;100.00;97581.59;5007906;28;20077;-48
2021/12/15 00:06:26;;;;;;;24.38;13.75;;;;;;;8.28;100.00;97579.31;5005485;28;20069;-47
2021/12/15 00:08:57;;;;;;;20.75;12.68;;;;;;;7.71;100.00;97576.97;5004025;28;20077;-46
2021/12/15 00:11:32;;;;;;;22.35;13.48;;;;;;;8.42;100.00;97580.22;5005305;28;20641;-46
2021/12/15 00:14:03;;;;;;;22.90;13.13;;;;;;;7.63;100.00;97579.25;5005425;28;20073;-46
2021/12/15 00:16:31;;;;;;;21.15;12.70;;;;;;;8.03;100.00;97582.75;5006725;28;20073;-47
2021/12/15 00:19:00;;;;;;;20.88;12.55;;;;;;;7.89;100.00;97581.97;5006074;28;20084;-48
2021/12/15 00:21:29;;;;;;;21.02;11.95;;;;;;;7.62;100.00;97588.06;4984569;28;20380;-46
2021/12/15 00:23:57;;;;;;;22.30;13.25;;;;;;;8.43;100.00;97587.16;4982498;28;20494;-47
2021/12/15 00:26:26;;;;;;;21.75;12.90;;;;;;;8.42;100.00;97588.09;4982147;28;20069;-48
2021/12/15 00:28:54;;;;;;;21.65;12.55;;;;;;;8.66;100.00;97581.16;4983462;28;20073;-43
2021/12/15 00:31:24;;;;;;;24.23;14.07;;;;;;;8.52;100.00;97584.75;4983572;28;20097;-43
2021/12/15 00:33:57;;;;;;;25.67;14.18;;;;;;;8.33;100.00;97589.53;5007834;28;20457;-47
2021/12/15 00:36:26;;;;;;;24.00;14.50;;;;;;;8.29;100.00;97588.91;5003445;28;20080;-46
2021/12/15 00:38:54;;;;;;;26.00;15.38;;;;;;;8.29;100.00;97588.91;4986112;28;20082;-46
2021/12/15 00:41:23;;;;;;;23.75;13.48;;;;;;;8.46;100.00;97585.16;4985154;28;20081;-45
2021/12/15 00:43:51;;;;;;;21.35;12.90;;;;;;;7.75;100.00;97590.75;4982679;28;20069;-43
2021/12/15 00:46:20;;;;;;;24.73;14.07;;;;;;;8.23;100.00;97594.56;4982049;28;20082;-47
2021/12/15 00:48:50;;;;;;;21.95;13.20;;;;;;;8.27;100.00;97588.16;4986036;28;20086;-45
2021/12/15 00:51:19;;;;;;;23.08;13.15;;;;;;;7.47;100.00;97596.94;4983257;28;20081;-47
2021/12/15 00:53:48;;;;;;;24.60;13.65;;;;;;;7.99;100.00;97593.56;4981158;28;20066;-48
2021/12/15 00:56:16;;;;;;;23.25;13.20;;;;;;;7.97;100.00;97598.06;4985166;28;20077;-44
2021/12/15 00:58:45;;;;;;;22.83;13.00;;;;;;;8.21;100.00;97600.88;4981117;28;20520;-45
2021/12/15 01:01:14;;;;;;;22.23;13.10;;;;;;;7.86;100.00;97604.03;4980127;28;20089;-51
2021/12/15 01:03:43;;;;;;;23.58;14.45;;;;;;;7.75;100.00;97609.13;5006332;28;20712;-42
2021/12/15 01:06:17;;;;;;;20.17;12.98;;;;;;;7.75;100.00;97602.09;4989062;28;20069;-47
2021/12/15 01:08:57;;;;;;;24.83;13.65;;;;;;;8.11;100.00;97598.00;4982298;28;20137;-46
2021/12/15 01:11:43;;;;;;;21.77;12.38;;;;;;;7.70;100.00;97614.66;4996143;28;20073;-45
2021/12/15 01:19:51;;;;;;;23.42;13.88;;;;;;;8.25;100.00;97608.44;5003784;28;20097;-50
2021/12/15 01:22:26;;;;;;;23.77;13.52;;;;;;;7.88;100.00;97615.28;5001471;28;20081;-43
2021/12/15 01:24:57;;;;;;;23.92;13.73;;;;;;;8.12;100.00;97609.34;4979677;28;20074;-46
2021/12/15 01:27:25;;;;;;;26.10;14.20;;;;;;;8.04;100.00;97608.06;4977845;28;20480;-45
2021/12/15 01:29:55;;;;;;;25.50;14.30;;;;;;;8.18;100.00;97599.28;4980411;28;20503;-48
2021/12/15 01:32:23;;;;;;;24.73;13.98;;;;;;;8.36;100.00;97606.88;4982901;28;20054;-43
2021/12/15 01:34:52;;;;;;;26.67;14.77;;;;;;;7.76;100.00;97611.66;4983617;28;20073;-44
2021/12/15 01:37:22;;;;;;;23.90;14.18;;;;;;;8.33;100.00;97616.66;4982645;28;20086;-44
2021/12/15 01:39:53;;;;;;;;;;;;;;;8.61;100.00;97620.09;4982615;28;20081;-49
2021/12/15 01:42:24;;;;;;;25.20;13.27;;;;;;;8.16;100.00;97619.56;4981641;28;19961;-45
2021/12/15 01:47:38;;;;;;;22.90;12.80;;;;;;;8.14;100.00;97624.06;4984390;28;20070;-46
2021/12/15 01:50:08;;;;;;;23.85;13.85;;;;;;;8.24;100.00;97619.91;4984563;28;20085;-44
2021/12/15 01:52:40;;;;;;;23.63;14.30;;;;;;;8.09;100.00;97616.50;4988326;28;20066;-49
2021/12/15 01:55:10;;;;;;;24.42;13.68;;;;;;;7.72;100.00;97622.44;5004241;28;20089;-47
2021/12/15 01:57:38;;;;;;;;;;;;;;;8.08;100.00;97617.41;5005309;28;20088;-43
2021/12/15 02:00:12;;;;;;;23.48;13.30;;;;;;;8.19;100.00;97615.88;5000216;28;20365;-45
2021/12/15 02:02:41;;;;;;;25.55;14.30;;;;;;;8.03;100.00;97616.06;5004122;28;20077;-48
2021/12/15 02:05:10;;;;;;;24.33;13.40;;;;;;;7.52;100.00;97619.31;5005788;28;20073;-50
2021/12/15 02:07:42;;;;;;;21.63;13.27;;;;;;;7.29;100.00;97633.84;5002690;28;20700;-44
2021/12/15 02:10:11;;;;;;;25.02;13.82;;;;;;;7.22;100.00;97624.69;4985373;28;20082;-46
2021/12/15 02:12:57;;;;;;;23.40;13.80;;;;;;;7.94;100.00;97622.75;5006658;28;20073;-50
2021/12/15 02:15:28;;;;;;;24.67;14.30;;;;;;;7.84;100.00;97616.41;4987825;28;20093;-43
2021/12/15 02:17:57;;;;;;;25.35;14.38;;;;;;;7.31;100.00;97623.28;4987183;28;20532;-47
2021/12/15 02:20:30;;;;;;;22.42;13.00;;;;;;;7.13;100.00;97618.25;4985432;28;20073;-44
2021/12/15 02:22:59;;;;;;;25.33;14.45;;;;;;;7.82;100.00;97619.13;4989486;28;20097;-47
2021/12/15 02:25:27;;;;;;;23.42;14.18;;;;;;;8.26;100.00;97609.31;4988443;28;20457;-45
2021/12/15 02:27:56;;;;;;;21.80;13.82;;;;;;;7.82;100.00;97605.16;4988095;28;20088;-45
2021/12/15 02:30:43;;;;;;;22.98;14.05;;;;;;;7.85;100.00;97597.94;5002099;28;20077;-47
2021/12/15 02:33:37;;;;;;;24.58;14.63;;;;;;;7.67;100.00;97606.97;5006204;28;20077;-46
2021/12/15 02:38:50;;;;;;;25.42;14.43;;;;;;;7.83;100.00;97605.06;5007455;28;20058;-44
2021/12/15 02:41:20;;;;;;;24.73;13.68;;;;;;;7.72;100.00;97598.81;5007277;28;20120;-43
2021/12/15 02:43:50;;;;;;;24.17;14.75;;;;;;;7.91;100.00;97606.34;5005957;28;20060;-47
2021/12/15 02:46:19;;;;;;;22.80;13.52;;;;;;;8.17;100.00;97602.84;5002119;28;20700;-46
2021/12/15 02:48:49;;;;;;;26.35;14.70;;;;;;;8.17;100.00;97597.59;5007508;28;20077;-44
2021/12/15 02:51:19;;;;;;;;;;;;;;;8.39;100.00;97598.81;5004895;28;20853;-49
2021/12/15 02:53:48;;;;;;;22.33;13.35;;;;;;;8.38;100.00;97590.09;5005866;28;19963;-48
2021/12/15 02:56:17;;;;;;;26.83;14.57;;;;;;;8.49;100.00;97600.72;5008913;28;20639;-46
2021/12/15 02:58:51;;;;;;;26.02;14.13;;;;;;;8.46;100.00;97602.72;5006098;28;20077;-47
2021/12/15 03:01:29;;;;;;;24.55;13.82;;;;;;;8.49;100.00;97603.34;5005629;28;20081;-50
2021/12/15 03:04:15;;;;;;;25.23;14.68;;;;;;;8.52;100.00;97600.53;5008974;28;20508;-50
2021/12/15 03:06:53;;;;;;;26.15;14.48;;;;;;;8.58;100.00;97601.06;5004747;28;20507;-49
2021/12/15 03:17:33;;;;;;;28.13;14.85;;;;;;;8.55;100.00;97617.88;4992673;28;20069;-50
2021/12/15 03:20:02;;;;;;;29.17;14.88;;;;;;;8.53;100.00;97617.13;5006049;28;20066;-51
2021/12/15 03:22:32;;;;;;;24.75;14.30;;;;;;;8.48;100.00;97616.63;5002465;28;20070;-49
2021/12/15 03:25:02;;;;;;;26.77;14.65;;;;;;;8.54;100.00;97618.84;4987694;28;20086;-49
2021/12/15 03:33:35;;;;;;;28.50;14.90;;;;;;;8.61;100.00;97614.84;4987438;28;20065;-47
2021/12/15 03:36:10;;;;;;;28.35;15.73;;;;;;;8.69;100.00;97616.94;4983263;28;20441;-47
2021/12/15 03:38:40;;;;;;;27.33;15.38;;;;;;;8.00;100.00;97624.13;4982626;28;20735;-47
2021/12/15 03:41:11;;;;;;;29.42;15.13;;;;;;;8.05;100.00;97615.03;4992391;28;20098;-47
2021/12/15 03:43:40;;;;;;;33.90;16.05;;;;;;;8.42;100.00;97615.22;5004274;28;20069;-51
2021/12/15 03:46:10;;;;;;;31.13;15.73;;;;;;;8.40;100.00;97614.50;5004820;28;20081;-47
2021/12/15 03:48:42;;;;;;;31.30;14.45;;;;;;;8.22;100.00;97616.50;5008039;28;20077;-45
2021/12/15 03:51:13;;;;;;;27.38;14.73;;;;;;;8.30;100.00;97619.50;5004595;28;20140;-48
2021/12/15 03:53:44;;;;;;;33.50;16.02;;;;;;;8.30;100.00;97622.13;5005206;28;20077;-46
2021/12/15 03:56:14;;;;;;;29.10;15.57;;;;;;;8.39;100.00;97617.22;5005284;28;20069;-49
2021/12/15 03:58:43;;;;;;;31.10;15.57;;;;;;;8.28;100.00;97618.75;5004751;28;20061;-48
2021/12/15 04:01:15;;;;;;;30.45;15.45;;;;;;;7.91;100.00;97622.94;4998006;28;20461;-48
2021/12/15 04:03:45;;;;;;;30.60;16.17;;;;;;;7.69;100.00;97639.25;5006538;28;20112;-47
2021/12/15 04:06:16;;;;;;;27.83;15.48;;;;;;;8.17;100.00;97630.91;5000260;28;20065;-45
2021/12/15 04:08:46;;;;;;;;;;;;;;;8.22;100.00;97627.03;4986815;28;20069;-44
2021/12/15 04:11:17;;;;;;;32.00;15.35;;;;;;;8.31;100.00;97631.69;4984567;28;20571;-46
2021/12/15 04:13:47;;;;;;;27.77;14.90;;;;;;;7.56;100.00;97627.81;4983620;28;20069;-46
2021/12/15 04:16:39;;;;;;;31.70;15.23;;;;;;;7.81;100.00;97630.59;4985056;28;20074;-48
2021/12/15 04:19:08;;;;;;;29.67;15.50;;;;;;;8.01;100.00;97621.41;4983316;28;20078;-45
2021/12/15 04:21:39;;;;;;;30.17;15.20;;;;;;;8.11;100.00;97626.91;4985415;28;21066;-44
2021/12/15 04:24:12;;;;;;;29.00;14.55;;;;;;;8.04;100.00;97639.59;4985537;28;20077;-48
2021/12/15 04:26:40;;;;;;;29.85;14.60;;;;;;;7.82;100.00;97634.88;4985671;28;20140;-47
2021/12/15 04:29:09;;;;;;;31.67;15.27;;;;;;;7.87;100.00;97631.13;4993419;28;20097;-46
2021/12/15 04:31:41;;;;;;;29.35;15.48;;;;;;;7.77;100.00;97634.31;5005119;28;20065;-48
2021/12/15 04:34:12;;;;;;;27.42;14.57;;;;;;;8.25;100.00;97637.34;5004147;28;20077;-45
2021/12/15 04:36:42;;;;;;;28.38;14.95;;;;;;;8.60;100.00;97634.16;5004935;28;20628;-46
2021/12/15 04:39:14;;;;;;;30.98;15.73;;;;;;;8.33;100.00;97628.97;5003036;28;20470;-49
2021/12/15 04:41:47;;;;;;;31.33;15.48;;;;;;;8.23;100.00;97633.16;5006272;28;20069;-44
2021/12/15 04:44:17;;;;;;;29.95;15.20;;;;;;;7.85;100.00;97629.44;5004468;28;20085;-45
2021/12/15 04:46:48;;;;;;;28.95;16.13;;;;;;;7.64;100.00;97630.81;5009875;28;20077;-47
2021/12/15 04:49:19;;;;;;;32.58;16.10;;;;;;;7.84;100.00;97633.03;5002943;28;20077;-49
2021/12/15 04:51:48;;;;;;;30.58;15.35;;;;;;;7.76;100.00;97640.53;5007495;28;20104;-45
2021/12/15 04:54:19;;;;;;;31.38;15.68;;;;;;;7.90;100.00;97651.94;5005442;28;20068;-44
2021/12/15 04:56:48;;;;;;;34.50;16.13;;;;;;;8.16;100.00;97648.47;5003388;28;20558;-50
2021/12/15 04:59:17;;;;;;;33.80;16.23;;;;;;;8.25;100.00;97658.34;5001782;28;20467;-51
2021/12/15 05:01:46;;;;;;;29.00;14.77;;;;;;;8.46;100.00;97650.88;5002695;28;20074;-52
2021/12/15 05:04:16;;;;;;;;;;;;;;;8.48;100.00;97654.25;5002178;28;20055;-46
2021/12/15 05:06:44;;;;;;;26.42;14.68;;;;;;;8.61;100.00;97658.72;5009267;28;19968;-44
2021/12/15 05:09:14;;;;;;;27.90;14.23;;;;;;;8.69;100.00;97654.59;5001815;28;20065;-45
2021/12/15 05:11:45;;;;;;;34.40;14.88;;;;;;;8.67;100.00;97658.28;5004549;28;20073;-44
2021/12/15 05:14:13;;;;;;;37.67;16.60;;;;;;;8.41;100.00;97655.59;5002884;28;20060;-48
2021/12/15 05:16:41;;;;;;;29.63;14.70;;;;;;;8.14;100.00;97649.50;5000334;28;20076;-47
2021/12/15 05:19:10;;;;;;;43.45;17.30;;;;;;;8.29;100.00;97651.13;5001324;28;20108;-49
2021/12/15 05:21:38;;;;;;;37.95;16.20;;;;;;;8.30;100.00;97656.28;4999243;28;20096;-48
2021/12/15 05:24:14;;;;;;;40.10;16.98;;;;;;;8.28;100.00;97658.16;5006374;28;20080;-44
2021/12/15 05:26:44;;;;;;;33.25;16.30;;;;;;;8.24;100.00;97661.09;5002285;28;20445;-47
2021/12/15 05:29:12;;;;;;;37.97;16.02;;;;;;;8.22;100.00;97673.47;5008051;28;20639;-47
2021/12/15 05:31:41;;;;;;;36.15;16.70;;;;;;;8.16;100.00;97672.13;5004273;28;20119;-50
2021/12/15 05:34:09;;;;;;;37.80;15.88;;;;;;;8.32;100.00;97671.94;5003712;28;20084;-45
2021/12/15 05:36:38;;;;;;;34.90;16.60;;;;;;;8.23;100.00;97670.78;5010479;28;20077;-44
2021/12/15 05:39:07;;;;;;;35.08;16.02;;;;;;;8.56;100.00;97677.41;5006766;28;20080;-49
2021/12/15 05:41:37;;;;;;;34.00;16.13;;;;;;;8.21;100.00;97687.56;5011249;28;20076;-48
2021/12/15 05:44:07;;;;;;;35.90;15.20;;;;;;;8.42;100.00;97685.34;5006816;28;20310;-45
2021/12/15 05:46:36;;;;;;;34.67;15.20;;;;;;;8.48;100.00;97685.81;5005086;28;20120;-49
2021/12/15 05:49:05;;;;;;;32.60;14.55;;;;;;;8.54;100.00;97687.19;5007532;28;20524;-49
2021/12/15 05:51:34;;;;;;;30.55;14.73;;;;;;;7.89;100.00;97700.16;5005346;28;20520;-50
2021/12/15 05:54:02;;;;;;;32.90;14.98;;;;;;;8.39;100.00;97703.97;5006469;28;20141;-48
2021/12/15 05:56:30;;;;;;;30.55;15.18;;;;;;;8.39;100.00;97706.59;5010820;28;20078;-47
2021/12/15 05:58:59;;;;;;;33.28;16.08;;;;;;;8.38;100.00;97705.75;5005033;28;20084;-44
2021/12/15 06:01:29;;;;;;;42.17;18.27;;;;;;;8.20;100.00;97712.19;5010831;28;20091;-43
2021/12/15 06:04:00;;;;;;;39.88;18.50;;;;;;;8.01;100.00;97715.97;5011477;28;20085;-45
2021/12/15 06:06:28;;;;;;;;;;;;;;;7.42;100.00;97724.97;5004982;28;20062;-49
2021/12/15 06:08:57;;;;;;;37.53;18.13;;;;;;;7.85;100.00;97724.00;5016091;28;19965;-46
2021/12/15 06:11:25;;;;;;;43.25;18.98;;;;;;;7.90;100.00;97726.31;5004529;28;20081;-44
2021/12/15 06:13:54;;;;;;;38.97;19.25;;;;;;;7.72;100.00;97722.22;5010419;28;20539;-47
2021/12/15 06:16:23;;;;;;;33.40;18.13;;;;;;;7.37;100.00;97731.34;5004492;28;20528;-42
2021/12/15 06:18:53;;;;;;;37.65;18.45;;;;;;;7.67;100.00;97735.63;5006949;28;20483;-48
2021/12/15 06:21:23;;;;;;;38.47;18.02;;;;;;;7.33;100.00;97735.09;4985461;28;20135;-46
2021/12/15 06:23:52;;;;;;;33.47;17.35;;;;;;;7.58;100.00;97737.06;4980847;28;20655;-45
2021/12/15 06:26:20;;;;;;;32.22;16.48;;;;;;;7.57;100.00;97735.38;4982139;28;20062;-47
2021/12/15 06:28:49;;;;;;;32.88;16.35;;;;;;;7.82;100.00;97742.56;4985129;28;20065;-45
2021/12/15 06:31:19;;;;;;;34.78;17.13;;;;;;;7.75;100.00;97737.78;5006820;28;20081;-47
2021/12/15 06:33:48;;;;;;;36.67;17.77;;;;;;;6.90;100.00;97745.50;5022283;28;20084;-44
2021/12/15 06:36:20;;;;;;;37.45;18.25;;;;;;;7.35;100.00;97742.84;5008771;28;20123;-49
2021/12/15 06:38:51;;;;;;;42.30;18.90;;;;;;;7.34;100.00;97754.31;5003663;28;20077;-47
2021/12/15 06:41:22;;;;;;;44.70;18.10;;;;;;;7.23;100.00;97754.94;5007951;28;20074;-48
2021/12/15 06:43:55;;;;;;;35.00;17.03;;;;;;;6.98;100.00;97754.69;5006057;28;20061;-50
2021/12/15 06:46:50;;;;;;;35.13;16.52;;;;;;;7.31;100.00;97770.22;5006528;28;20495;-44
2021/12/15 07:00:22;;;;;;;40.92;17.98;;;;;;;6.72;100.00;97761.47;5000740;28;20080;-48
2021/12/15 07:02:51;;;;;;;;;;;;;;;6.70;100.00;97772.03;5012329;28;20081;-46
2021/12/15 07:05:20;;;;;;;39.45;17.50;;;;;;;6.96;100.00;97770.53;5007341;28;20431;-49
2021/12/15 07:07:51;;;;;;;44.53;18.45;;;;;;;7.04;100.00;97772.72;5010436;28;20061;-48
2021/12/15 07:10:21;;;;;;;;;;;;;;;6.77;100.00;97781.25;5007437;28;20457;-48
2021/12/15 07:12:50;;;;;;;36.88;16.42;;;;;;;6.58;100.00;97778.84;5009694;28;19971;-46
2021/12/15 07:15:19;;;;;;;40.35;17.98;;;;;;;6.77;100.00;97777.78;5010369;28;20070;-49
2021/12/15 07:17:50;;;;;;;35.97;16.98;;;;;;;6.57;100.00;97771.91;4993800;28;20552;-45
2021/12/15 07:20:36;;;;;;;42.95;18.52;;;;;;;6.66;100.00;97778.41;4996813;28;20511;-48
2021/12/15 07:23:09;;;;;;;42.00;17.65;;;;;;;6.78;100.00;97776.84;5008865;28;20515;-45
2021/12/15 07:25:38;;;;;;;44.38;17.92;;;;;;;6.70;100.00;97784.31;5007214;28;20061;-48
2021/12/15 07:28:06;;;;;;;41.70;17.35;;;;;;;6.48;100.00;97793.41;5010442;28;20084;-50
2021/12/15 07:30:36;;;;;;;37.25;17.00;;;;;;;6.99;100.00;97790.50;5011004;28;20077;-48
2021/12/15 07:33:05;;;;;;;41.33;17.08;;;;;;;6.88;100.00;97799.84;5007156;28;20064;-46
2021/12/15 07:35:34;;;;;;;43.53;17.70;;;;;;;6.94;100.00;97801.25;5011282;28;20450;-48
2021/12/15 07:38:03;;;;;;;43.63;18.58;;;;;;;7.30;100.00;97807.91;5009823;28;20066;-45
2021/12/15 07:40:33;;;;;;;50.03;20.77;;;;;;;6.96;100.00;97807.25;5005840;28;20069;-48
2021/12/15 07:43:09;;;;;;;43.63;18.48;;;;;;;7.21;100.00;97801.41;5013694;28;20089;-46
2021/12/15 07:45:44;;;;;;;48.08;20.40;;;;;;;7.53;100.00;97806.50;5006750;28;21613;-44
2021/12/15 07:48:15;;;;;;;46.35;21.02;;;;;;;7.92;100.00;97807.66;5005882;28;20065;-49
2021/12/15 07:50:46;;;;;;;41.85;19.20;;;;;;;7.59;100.00;97808.78;5012187;28;20066;-46
2021/12/15 07:53:15;;;;;;;38.42;18.35;;;;;;;7.49;100.00;97808.47;5009378;28;20090;-47
2021/12/15 07:55:45;;;;;;;42.58;19.17;;;;;;;7.56;100.00;97816.81;5006262;28;20081;-47
2021/12/15 07:58:15;;;;;;;43.40;19.63;;;;;;;8.00;100.00;97810.66;5014724;28;20069;-51
2021/12/15 08:00:44;;;;;;;38.90;18.58;;;;;;;8.27;100.00;97806.28;5003935;28;20074;-47
2021/12/15 08:03:13;;;;;;;43.85;18.63;;;;;;;8.10;100.00;97814.38;4981337;28;20074;-48
2021/12/15 08:05:42;;;;;;;37.40;18.48;;;;;;;8.30;100.00;97816.59;4982627;28;20524;-52
2021/12/15 08:08:11;;;;;;;42.10;18.98;;;;;;;8.46;100.00;97818.28;4987417;28;20147;-51
2021/12/15 08:10:41;;;;;;;43.95;20.00;;;;;;;8.32;100.00;97827.00;4986056;28;20065;-50
2021/12/15 08:13:12;;;;;;;43.95;20.00;;;;;;;7.48;100.00;97829.59;4979244;28;20485;-47
2021/12/15 08:15:40;;;;;;;42.25;18.33;;;;;;;7.64;100.00;97826.88;4989037;28;20090;-50
2021/12/15 08:18:09;;;;;;;43.60;19.95;;;;;;;7.95;100.00;97831.97;4986431;28;20062;-45
2021/12/15 08:20:38;;;;;;;45.45;22.23;;;;;;;8.31;100.00;97826.16;4986154;28;20567;-53
2021/12/15 08:23:07;;;;;;;42.05;19.15;;;;;;;8.62;100.00;97819.00;4992719;28;20073;-49
2021/12/15 08:25:37;;;;;;;44.22;20.25;;;;;;;8.67;100.00;97826.56;5008010;28;20453;-47
2021/12/15 08:28:07;;;;;;;48.95;22.30;;;;;;;8.15;100.00;97828.06;5004638;28;20077;-46
2021/12/15 08:30:38;;;;;;;46.97;21.20;;;;;;;8.52;100.00;97833.66;5005344;28;20070;-48
2021/12/15 08:33:09;;;;;;;48.38;20.83;;;;;;;8.77;100.00;97817.16;5003731;28;20083;-46
2021/12/15 08:35:39;;;;;;;41.65;19.67;;;;;;;8.84;100.00;97814.97;5018759;28;20070;-45
2021/12/15 08:38:09;;;;;;;45.50;19.95;;;;;;;8.96;100.00;97828.16;4997651;28;20058;-46
2021/12/15 08:40:38;;;;;;;46.10;20.42;;;;;;;8.85;100.00;97824.56;4979910;28;20061;-46
2021/12/15 08:43:07;;;;;;;41.22;19.40;;;;;;;9.08;100.00;97833.56;4980237;28;20105;-49
2021/12/15 08:45:40;;;;;;;44.85;20.20;;;;;;;9.16;100.00;97832.13;4986801;28;20082;-51
2021/12/15 08:48:10;;;;;;;43.15;20.23;;;;;;;9.03;100.00;97836.50;4981769;28;20071;-48
2021/12/15 08:50:40;;;;;;;45.10;20.83;;;;;;;8.52;100.00;97833.66;4982634;28;20467;-49
2021/12/15 08:53:11;;;;;;;41.47;20.52;;;;;;;8.73;100.00;97842.81;4996627;28;20067;-46
2021/12/15 08:55:40;;;;;;;46.13;23.05;;;;;;;8.91;100.00;97838.16;4999682;28;20481;-45
2021/12/15 08:58:11;;;;;;;39.65;19.73;;;;;;;9.06;100.00;97828.41;4983504;28;20719;-45
2021/12/15 09:00:43;;;;;;;38.35;18.95;;;;;;;8.80;100.00;97828.31;4984835;28;20073;-50
2021/12/15 09:03:12;;;;;;;45.22;19.52;;;;;;;8.19;100.00;97839.22;4979258;28;20059;-49
2021/12/15 09:05:42;;;;;;;36.83;18.40;;;;;;;8.91;100.00;97835.53;4982488;28;20073;-45
2021/12/15 09:08:12;;;;;;;39.30;19.30;;;;;;;8.28;100.00;97847.38;4984209;28;20062;-49
2021/12/15 09:10:43;;;;;;;37.83;17.45;;;;;;;8.11;100.00;97838.88;4981291;28;20149;-43
2021/12/15 09:13:12;;;;;;;34.15;16.40;;;;;;;8.21;100.00;97835.56;4978140;28;20456;-49
2021/12/15 09:15:44;;;;;;;41.60;19.25;;;;;;;8.32;100.00;97834.91;5007033;28;20077;-46
2021/12/15 09:18:14;;;;;;;40.17;19.13;;;;;;;7.55;100.00;97841.41;4982868;28;20084;-50
2021/12/15 09:20:44;;;;;;;41.35;18.58;;;;;;;8.39;100.00;97838.84;4990533;28;20062;-45
2021/12/15 09:23:16;;;;;;;43.10;20.40;;;;;;;8.04;100.00;97843.66;5007355;28;20062;-48
2021/12/15 09:25:46;;;;;;;49.55;20.15;;;;;;;8.39;100.00;97845.91;5004593;28;20061;-47
2021/12/15 09:28:18;;;;;;;41.05;18.42;;;;;;;8.69;100.00;97845.75;5006744;28;20074;-47
2021/12/15 09:30:49;;;;;;;37.83;17.77;;;;;;;8.69;100.00;97836.06;5005880;28;20076;-46
2021/12/15 09:33:21;;;;;;;39.65;19.83;;;;;;;8.86;100.00;97845.50;5005635;28;20070;-49
2021/12/15 09:35:50;;;;;;;37.30;18.70;;;;;;;8.93;100.00;97848.56;5013234;28;20555;-43
2021/12/15 09:38:21;;;;;;;42.22;19.13;;;;;;;8.73;100.00;97848.06;5006089;28;20427;-44
2021/12/15 09:40:51;;;;;;;39.17;18.90;;;;;;;8.47;100.00;97846.28;5006810;28;20314;-46
2021/12/15 09:43:19;;;;;;;33.35;17.13;;;;;;;7.91;100.00;97854.06;5007815;28;20531;-45
2021/12/15 09:45:55;;;;;;;31.67;16.77;;;;;;;8.61;100.00;97853.28;5007175;28;20635;-46
2021/12/15 10:02:45;;;;;;;42.45;19.13;;;;;;;7.93;100.00;97840.84;5008637;28;20077;-49
2021/12/15 10:05:38;;;;;;;38.13;18.63;;;;;;;8.46;100.00;97839.31;5008760;28;20081;-44
2021/12/15 10:11:15;;;;;;;;;;;;;;;8.11;100.00;97837.09;5008851;28;20070;-48
2021/12/15 10:19:27;;;;;;;32.15;15.85;;;;;;;8.28;100.00;97830.78;5000888;28;20073;-46
2021/12/15 10:22:08;;;;;;;30.95;16.48;;;;;;;8.14;100.00;97830.81;4984076;28;20074;-43
2021/12/15 10:24:44;;;;;;;;;;;;;;;8.24;100.00;97830.13;4981902;28;20460;-46
2021/12/15 10:27:14;;;;;;;28.60;14.85;;;;;;;7.92;100.00;97831.31;5006599;28;19964;-50
2021/12/15 10:30:08;;;;;;;26.35;14.30;;;;;;;8.86;100.00;97819.19;5012308;28;20078;-47
2021/12/15 10:32:39;;;;;;;29.45;15.38;;;;;;;8.89;100.00;97811.09;5006501;28;20491;-51
2021/12/15 10:35:10;;;;;;;;;;;;;;;8.56;100.00;97817.59;5010744;28;20092;-51
2021/12/15 10:37:39;;;;;;;27.52;14.38;;;;;;;9.13;100.00;97806.00;5008233;28;19979;-51
2021/12/15 10:40:19;;;;;;;25.25;13.73;;;;;;;8.70;100.00;97813.22;5006116;28;20065;-48
2021/12/15 10:42:48;;;;;;;28.25;14.73;;;;;;;8.23;100.00;97814.47;5009738;28;20089;-51
2021/12/15 10:45:17;;;;;;;24.50;13.57;;;;;;;8.46;100.00;97815.66;5009437;28;20088;-51
2021/12/15 10:47:51;;;;;;;24.02;13.57;;;;;;;7.84;100.00;97821.25;5005823;28;20062;-48
2021/12/15 10:50:23;;;;;;;23.05;13.48;;;;;;;7.87;100.00;97804.47;5002821;28;20089;-48
2021/12/15 10:52:57;;;;;;;21.40;12.30;;;;;;;8.03;100.00;97813.94;4986340;28;20066;-51
2021/12/15 10:55:31;;;;;;;21.38;12.32;;;;;;;7.60;100.00;97813.94;4986106;28;20101;-53
2021/12/15 10:58:00;;;;;;;20.15;12.00;;;;;;;7.55;100.00;97817.78;4983163;28;20073;-46
2021/12/15 11:00:36;;;;;;;18.85;11.98;;;;;;;8.70;100.00;97803.53;5006077;28;20129;-52
2021/12/15 11:03:14;;;;;;;21.95;11.88;;;;;;;8.62;100.00;97799.75;4988568;28;20093;-48
2021/12/15 11:05:43;;;;;;;24.17;12.48;;;;;;;8.86;100.00;97797.31;4985796;28;20080;-52
2021/12/15 11:08:12;;;;;;;24.45;12.45;;;;;;;8.52;100.00;97799.50;4984897;28;20085;-47
2021/12/15 11:10:40;;;;;;;18.42;12.07;;;;;;;8.36;100.00;97804.00;4992471;28;20643;-49
2021/12/15 11:13:10;;;;;;;22.48;13.38;;;;;;;8.35;100.00;97802.31;5007059;28;20074;-51
2021/12/15 11:15:42;;;;;;;20.08;11.90;;;;;;;8.85;100.00;97788.56;4985598;28;20089;-44
2021/12/15 11:18:16;;;;;;;20.33;12.02;;;;;;;8.39;100.00;97796.78;5001532;28;20098;-48
2021/12/15 11:20:48;;;;;;;18.20;11.40;;;;;;;8.78;100.00;97782.88;5015077;28;20069;-45
2021/12/15 11:23:18;;;;;;;18.33;11.45;;;;;;;8.62;100.00;97789.22;5009306;28;20072;-49
2021/12/15 11:25:50;;;;;;;17.40;10.30;;;;;;;8.88;100.00;97772.59;5011372;28;20481;-51
2021/12/15 11:28:21;;;;;;;18.00;11.40;;;;;;;8.89;100.00;97781.31;5011736;28;20460;-44
2021/12/15 11:30:57;;;;;;;17.15;10.15;;;;;;;8.64;100.00;97782.09;5006231;28;20081;-49
2021/12/15 11:33:27;;;;;;;13.93;9.55;;;;;;;8.23;100.00;97783.78;5006897;28;20072;-46
2021/12/15 11:35:59;;;;;;;13.25;8.77;;;;;;;8.23;100.00;97778.53;5008495;28;20068;-47
2021/12/15 11:38:30;;;;;;;14.93;9.18;;;;;;;8.59;100.00;97773.66;5007287;28;20069;-44
2021/12/15 11:41:21;;;;;;;12.30;8.60;;;;;;;8.07;100.00;97781.25;4998930;28;20062;-50
2021/12/15 11:43:52;;;;;;;12.93;9.15;;;;;;;8.47;100.00;97773.50;4982090;28;20128;-47
2021/12/15 11:46:26;;;;;;;13.43;9.10;;;;;;;8.88;100.00;97766.47;4984995;28;20108;-51
2021/12/15 11:48:56;;;;;;;12.35;8.88;;;;;;;8.58;100.00;97766.72;4988536;28;20074;-48
2021/12/15 11:51:38;;;;;;;11.30;8.25;;;;;;;9.15;100.00;97766.41;4979604;28;20066;-48
2021/12/15 11:54:15;;;;;;;13.75;9.73;;;;;;;9.07;100.00;97766.09;4983504;28;20077;-48
2021/12/15 11:56:45;;;;;;;13.57;9.40;;;;;;;9.14;100.00;97764.72;4982914;28;20073;-49
2021/12/15 11:59:21;;;;;;;12.68;8.68;;;;;;;8.96;100.00;97762.38;4986231;28;20559;-50
2021/12/15 12:01:57;;;;;;;11.98;7.97;;;;;;;9.07;100.00;97759.03;4988782;28;20065;-48
2021/12/15 12:04:29;;;;;;;10.88;8.20;;;;;;;8.76;100.00;97753.19;4990185;28;20076;-46
2021/12/15 12:07:20;;;;;;;12.20;8.80;;;;;;;8.66;100.00;97754.72;5012376;28;20092;-50
2021/12/15 12:09:51;;;;;;;11.20;8.40;;;;;;;9.10;100.00;97743.03;5002335;28;20103;-52
2021/12/15 12:12:23;;;;;;;9.98;7.97;;;;;;;8.42;100.00;97746.66;5013493;28;20707;-45
2021/12/15 12:14:52;;;;;;;11.68;8.35;;;;;;;8.63;100.00;97740.94;4994209;28;20069;-48
2021/12/15 12:17:23;;;;;;;12.55;8.43;;;;;;;8.74;100.00;97743.69;4992322;28;20576;-49
2021/12/15 12:19:56;;;;;;;11.05;8.13;;;;;;;8.29;100.00;97736.09;5013800;28;20072;-50
2021/12/15 12:22:28;;;;;;;13.07;8.88;;;;;;;8.52;100.00;97734.59;5004603;28;20081;-50
2021/12/15 12:24:59;;;;;;;12.23;8.70;;;;;;;9.23;100.00;97730.72;5008283;28;20545;-49
2021/12/15 12:27:31;;;;;;;11.57;8.35;;;;;;;8.78;100.00;97732.91;5004504;28;20096;-49
2021/12/15 12:30:04;;;;;;;10.63;8.30;;;;;;;9.60;100.00;97728.19;5004385;28;20085;-51
2021/12/15 12:32:33;;;;;;;9.07;6.72;;;;;;;9.62;100.00;97725.44;5000922;28;20068;-46
2021/12/15 12:35:03;;;;;;;8.02;6.35;;;;;;;9.08;100.00;97734.41;5008680;28;20053;-50
2021/12/15 12:37:33;;;;;;;7.28;5.65;;;;;;;9.28;100.00;97725.97;5006389;28;20472;-48
2021/12/15 12:40:08;;;;;;;9.43;6.43;;;;;;;9.47;100.00;97719.47;5012182;28;20531;-49